createdAt,value
2023-06-29T00:00:00.358Z,7.00
2023-06-29T00:02:30.583Z,7.00
2023-06-29T00:04:59.062Z,8.00
2023-06-29T00:07:27.012Z,8.00
2023-06-29T00:09:55.932Z,6.50
2023-06-29T00:12:24.030Z,7.00
2023-06-29T00:14:52.013Z,11.00
2023-06-29T00:18:16.979Z,8.50
2023-06-29T00:21:24.275Z,6.33
2023-06-29T00:23:54.854Z,7.50
2023-06-29T00:26:22.856Z,10.00
2023-06-29T00:28:50.816Z,8.00
2023-06-29T00:31:20.171Z,7.00
2023-06-29T00:33:48.129Z,9.00
2023-06-29T00:36:16.106Z,10.00
2023-06-29T00:38:44.034Z,11.00
2023-06-29T00:41:12.040Z,11.50
2023-06-29T00:43:42.471Z,11.00
2023-06-29T00:46:12.363Z,10.00
2023-06-29T00:48:40.416Z,9.00
2023-06-29T00:51:08.831Z,8.50
2023-06-29T00:53:38.430Z,10.00
2023-06-29T00:56:06.565Z,10.00
2023-06-29T00:58:35.000Z,9.00
2023-06-29T01:01:03.037Z,9.00
2023-06-29T01:03:32.256Z,9.00
2023-06-29T01:06:08.234Z,10.00
2023-06-29T01:08:46.863Z,12.00
2023-06-29T01:11:16.017Z,7.50
2023-06-29T01:13:46.321Z,10.00
2023-06-29T01:16:16.284Z,9.00
2023-06-29T01:18:47.045Z,10.00
2023-06-29T01:21:17.671Z,10.00
2023-06-29T01:23:47.884Z,10.50
2023-06-29T01:26:17.100Z,9.00
2023-06-29T01:28:45.079Z,9.00
2023-06-29T01:31:13.150Z,9.00
2023-06-29T01:33:41.907Z,13.00
2023-06-29T01:36:24.993Z,12.00
2023-06-29T01:39:07.172Z,8.50
2023-06-29T01:41:41.378Z,11.00
2023-06-29T01:44:15.920Z,10.00
2023-06-29T01:46:46.552Z,9.50
2023-06-29T01:49:15.102Z,10.00
2023-06-29T01:51:43.310Z,11.50
2023-06-29T01:54:11.576Z,16.00
2023-06-29T01:56:39.673Z,10.00
2023-06-29T02:01:35.624Z,10.00
2023-06-29T02:04:04.314Z,9.50
2023-06-29T02:06:32.306Z,11.00
2023-06-29T02:09:00.739Z,12.00
2023-06-29T02:11:28.794Z,12.50
2023-06-29T02:13:56.777Z,8.00
2023-06-29T02:16:25.178Z,8.00
2023-06-29T02:18:53.247Z,13.50
2023-06-29T02:21:21.681Z,10.00
2023-06-29T02:23:49.736Z,12.00
2023-06-29T02:26:17.978Z,10.00
2023-06-29T02:28:46.085Z,12.00
2023-06-29T02:31:14.100Z,10.50
2023-06-29T02:33:42.170Z,11.00
2023-06-29T02:36:11.825Z,7.00
2023-06-29T02:38:40.057Z,11.00
2023-06-29T02:41:08.277Z,12.00
2023-06-29T02:43:36.254Z,9.00
2023-06-29T02:46:04.857Z,10.00
2023-06-29T02:48:34.328Z,10.00
2023-06-29T02:51:02.461Z,9.50
2023-06-29T02:53:30.687Z,12.00
2023-06-29T02:55:58.708Z,9.50
2023-06-29T02:58:29.050Z,10.00
2023-06-29T03:00:57.656Z,10.00
2023-06-29T03:03:25.745Z,9.00
2023-06-29T03:08:21.958Z,9.00
2023-06-29T03:10:50.077Z,10.00
2023-06-29T03:13:18.099Z,9.00
2023-06-29T03:15:46.344Z,11.00
2023-06-29T03:18:14.771Z,10.00
2023-06-29T03:20:43.052Z,10.00
2023-06-29T03:23:11.045Z,11.50
2023-06-29T03:25:38.998Z,9.00
2023-06-29T03:28:07.007Z,12.00
2023-06-29T03:30:34.983Z,12.50
2023-06-29T03:33:03.081Z,11.50
2023-06-29T03:35:31.123Z,11.00
2023-06-29T03:37:59.101Z,9.00
2023-06-29T03:40:27.157Z,11.00
2023-06-29T03:42:55.263Z,9.50
2023-06-29T03:45:23.245Z,12.00
2023-06-29T03:47:51.450Z,13.50
2023-06-29T03:50:19.414Z,9.00
2023-06-29T03:52:47.552Z,12.00
2023-06-29T03:55:17.910Z,15.00
2023-06-29T03:57:46.500Z,12.00
2023-06-29T04:00:16.923Z,13.00
2023-06-29T04:02:45.057Z,13.00
2023-06-29T04:05:13.574Z,15.00
2023-06-29T04:07:41.679Z,13.00
2023-06-29T04:10:09.789Z,14.50
2023-06-29T04:12:37.772Z,11.50
2023-06-29T04:15:06.357Z,9.50
2023-06-29T04:17:34.288Z,12.00
2023-06-29T04:20:04.384Z,12.00
2023-06-29T04:22:32.974Z,13.50
2023-06-29T04:25:00.927Z,13.00
2023-06-29T04:27:28.908Z,12.50
2023-06-29T04:32:24.765Z,10.00
2023-06-29T04:34:52.894Z,10.00
2023-06-29T04:37:20.864Z,10.00
2023-06-29T04:39:49.334Z,11.67
2023-06-29T04:42:18.253Z,10.00
2023-06-29T04:44:46.426Z,10.00
2023-06-29T04:47:14.634Z,10.50
2023-06-29T04:49:45.942Z,10.50
2023-06-29T04:52:14.067Z,13.50
2023-06-29T04:54:42.154Z,13.00
2023-06-29T04:57:10.168Z,10.00
2023-06-29T04:59:38.231Z,8.00
2023-06-29T05:02:07.021Z,10.00
2023-06-29T05:04:35.061Z,11.00
2023-06-29T05:07:03.080Z,10.00
2023-06-29T05:09:31.159Z,10.00
2023-06-29T05:11:59.059Z,7.50
2023-06-29T05:14:27.884Z,6.00
2023-06-29T05:16:55.997Z,8.00
2023-06-29T05:19:24.049Z,8.50
2023-06-29T05:21:52.030Z,7.00
2023-06-29T05:24:20.692Z,11.00
2023-06-29T05:26:48.645Z,8.00
2023-06-29T05:29:16.641Z,8.00
2023-06-29T05:31:44.727Z,10.00
2023-06-29T05:34:12.755Z,10.00
2023-06-29T05:36:40.686Z,8.50
2023-06-29T05:39:08.692Z,9.00
2023-06-29T05:41:37.063Z,10.00
2023-06-29T05:44:05.690Z,9.00
2023-06-29T05:46:35.263Z,11.00
2023-06-29T05:49:03.362Z,9.50
2023-06-29T05:51:31.393Z,11.00
2023-06-29T05:53:59.642Z,7.00
2023-06-29T05:56:27.823Z,8.50
2023-06-29T05:58:55.941Z,8.50
2023-06-29T06:01:24.045Z,8.50
2023-06-29T06:03:52.246Z,11.00
2023-06-29T06:06:20.250Z,10.00
2023-06-29T06:08:48.439Z,10.00
2023-06-29T06:11:16.468Z,11.00
2023-06-29T06:13:45.169Z,8.50
2023-06-29T06:16:13.829Z,9.00
2023-06-29T06:18:41.806Z,9.00
2023-06-29T06:21:10.231Z,5.00
2023-06-29T06:23:38.272Z,10.00
2023-06-29T06:26:06.259Z,9.00
2023-06-29T06:28:34.364Z,10.00
2023-06-29T06:31:02.442Z,7.00
2023-06-29T06:33:31.499Z,8.00
2023-06-29T06:36:00.913Z,9.00
2023-06-29T06:38:41.132Z,9.00
2023-06-29T06:41:17.579Z,9.00
2023-06-29T06:43:45.568Z,10.00
2023-06-29T06:46:14.313Z,10.00
2023-06-29T06:48:42.668Z,10.00
2023-06-29T06:51:10.797Z,10.00
2023-06-29T06:53:38.920Z,8.00
2023-06-29T06:56:07.181Z,10.00
2023-06-29T06:58:35.644Z,9.00
2023-06-29T07:01:03.803Z,7.00
2023-06-29T07:03:31.877Z,12.00
2023-06-29T07:06:00.177Z,10.50
2023-06-29T07:08:29.113Z,11.33
2023-06-29T07:10:57.126Z,10.00
2023-06-29T07:13:25.633Z,15.00
2023-06-29T07:15:53.716Z,13.00
2023-06-29T07:18:21.729Z,13.00
2023-06-29T07:25:51.918Z,12.00
2023-06-29T07:28:20.104Z,14.00
2023-06-29T07:30:48.101Z,11.50
2023-06-29T07:33:16.145Z,14.00
2023-06-29T07:35:44.307Z,13.00
2023-06-29T07:38:12.494Z,11.67
2023-06-29T07:40:40.680Z,11.50
2023-06-29T07:43:08.831Z,12.00
2023-06-29T07:45:36.790Z,11.00
2023-06-29T07:48:04.986Z,12.00
2023-06-29T07:50:33.008Z,9.50
2023-06-29T07:53:01.182Z,9.33
2023-06-29T07:55:29.308Z,10.00
2023-06-29T08:00:28.610Z,10.00
2023-06-29T08:02:56.813Z,8.50
2023-06-29T08:07:55.952Z,9.50
2023-06-29T08:10:24.742Z,10.00
2023-06-29T08:12:52.848Z,8.00
2023-06-29T08:15:21.129Z,10.00
2023-06-29T08:17:49.130Z,9.00
2023-06-29T08:20:17.276Z,9.00
2023-06-29T08:22:46.357Z,9.50
2023-06-29T08:25:14.359Z,9.50
2023-06-29T08:27:43.250Z,9.50
2023-06-29T08:30:12.049Z,8.00
2023-06-29T08:32:40.442Z,7.67
2023-06-29T08:35:08.768Z,9.00
2023-06-29T08:37:37.216Z,9.50
2023-06-29T08:40:06.753Z,10.00
2023-06-29T08:42:36.344Z,9.00
2023-06-29T08:45:06.828Z,10.00
2023-06-29T08:47:36.373Z,9.00
2023-06-29T08:50:06.428Z,9.00
2023-06-29T08:52:35.887Z,10.00
2023-06-29T08:55:04.678Z,10.50
2023-06-29T08:57:33.656Z,11.50
2023-06-29T09:00:05.048Z,11.00
2023-06-29T09:05:04.033Z,14.33
2023-06-29T09:07:33.268Z,11.00
2023-06-29T09:10:01.450Z,12.00
2023-06-29T09:12:29.573Z,12.00
2023-06-29T09:14:58.459Z,12.50
2023-06-29T09:19:56.882Z,12.00
2023-06-29T09:22:32.303Z,13.50
2023-06-29T09:25:09.796Z,19.50
2023-06-29T09:27:44.281Z,20.00
2023-06-29T09:30:22.313Z,16.00
2023-06-29T09:32:54.170Z,12.00
2023-06-29T09:35:24.507Z,12.00
2023-06-29T09:37:52.827Z,15.00
2023-06-29T09:40:20.851Z,13.00
2023-06-29T09:42:50.013Z,17.00
2023-06-29T09:45:18.170Z,12.50
2023-06-29T09:52:55.317Z,12.00
2023-06-29T09:55:31.427Z,10.00
2023-06-29T09:58:00.681Z,13.50
2023-06-29T10:00:29.267Z,12.00
2023-06-29T10:02:57.552Z,10.00
2023-06-29T10:05:25.811Z,9.00
2023-06-29T10:07:54.498Z,10.33
2023-06-29T10:10:24.942Z,10.50
2023-06-29T10:12:57.211Z,9.50
2023-06-29T10:15:27.675Z,10.00
2023-06-29T10:18:17.927Z,8.00
2023-06-29T10:20:47.357Z,8.00
2023-06-29T10:23:18.489Z,10.50
2023-06-29T10:28:20.634Z,10.50
2023-06-29T10:30:52.090Z,8.00
2023-06-29T10:33:24.203Z,10.00
2023-06-29T10:35:54.008Z,8.00
2023-06-29T10:38:27.683Z,10.00
2023-06-29T10:40:55.750Z,10.00
2023-06-29T10:43:29.540Z,9.50
2023-06-29T10:46:00.353Z,11.00
2023-06-29T10:48:47.188Z,12.00
2023-06-29T10:51:16.366Z,8.00
2023-06-29T10:53:48.016Z,10.00
2023-06-29T10:56:32.255Z,10.00
2023-06-29T10:59:00.738Z,9.00
2023-06-29T11:01:29.411Z,8.00
2023-06-29T11:03:57.688Z,9.00
2023-06-29T11:06:34.159Z,6.00
2023-06-29T11:09:13.305Z,10.50
2023-06-29T11:11:43.497Z,9.67
2023-06-29T11:14:15.662Z,11.50
2023-06-29T11:16:43.789Z,11.00
2023-06-29T11:22:01.872Z,11.00
2023-06-29T11:24:31.226Z,9.50
2023-06-29T11:26:59.721Z,8.00
2023-06-29T11:29:28.966Z,8.00
2023-06-29T11:31:57.138Z,7.50
2023-06-29T11:34:25.187Z,6.00
2023-06-29T11:37:09.175Z,9.00
2023-06-29T11:39:41.265Z,8.00
2023-06-29T11:42:10.515Z,10.00
2023-06-29T11:44:39.486Z,10.00
2023-06-29T11:47:31.585Z,8.00
2023-06-29T11:49:58.812Z,7.00
2023-06-29T11:52:33.885Z,7.00
2023-06-29T11:55:04.581Z,8.00
2023-06-29T11:57:33.644Z,6.00
2023-06-29T12:00:03.300Z,6.50
2023-06-29T12:02:42.300Z,8.00
2023-06-29T12:05:11.253Z,7.00
2023-06-29T12:07:40.663Z,7.50
2023-06-29T12:10:23.018Z,4.50
2023-06-29T12:12:57.162Z,9.00
2023-06-29T12:15:27.086Z,7.00
2023-06-29T12:18:16.403Z,8.00
2023-06-29T12:20:48.117Z,7.00
2023-06-29T12:23:16.652Z,9.00
2023-06-29T12:28:15.948Z,11.00
2023-06-29T12:30:45.024Z,10.00
2023-06-29T12:33:14.588Z,9.00
2023-06-29T12:38:12.812Z,8.00
2023-06-29T12:40:40.886Z,10.50
2023-06-29T12:43:08.831Z,8.00
2023-06-29T12:45:37.066Z,8.00
2023-06-29T12:48:05.421Z,11.00
2023-06-29T12:50:34.056Z,7.00
2023-06-29T12:53:02.119Z,5.00
2023-06-29T12:55:30.010Z,8.50
2023-06-29T12:57:57.937Z,6.00
2023-06-29T13:00:26.146Z,7.00
2023-06-29T13:05:22.853Z,6.00
2023-06-29T13:07:50.766Z,7.00
2023-06-29T13:10:19.518Z,7.00
2023-06-29T13:12:47.785Z,5.00
2023-06-29T13:15:15.823Z,7.00
2023-06-29T13:17:44.467Z,8.50
2023-06-29T13:20:15.920Z,7.00
2023-06-29T13:22:44.573Z,10.00
2023-06-29T13:25:13.012Z,5.50
2023-06-29T13:27:42.685Z,7.00
2023-06-29T13:30:11.240Z,7.00
2023-06-29T13:32:39.217Z,6.50
2023-06-29T13:35:07.457Z,8.00
2023-06-29T13:37:35.411Z,6.00
2023-06-29T13:40:04.059Z,8.00
2023-06-29T13:42:31.926Z,7.00
2023-06-29T13:44:59.844Z,6.00
2023-06-29T13:47:28.452Z,7.00
2023-06-29T13:49:56.438Z,6.00
2023-06-29T13:52:24.308Z,5.00
2023-06-29T13:54:52.230Z,7.00
2023-06-29T13:57:21.609Z,5.00
2023-06-29T13:59:50.266Z,5.00
2023-06-29T14:02:18.240Z,5.00
2023-06-29T14:04:46.546Z,4.00
2023-06-29T14:09:44.059Z,5.00
2023-06-29T14:12:12.030Z,5.00
2023-06-29T14:14:39.889Z,5.00
2023-06-29T14:17:07.748Z,5.00
2023-06-29T14:19:35.644Z,5.00
2023-06-29T14:22:04.633Z,5.00
2023-06-29T14:24:32.620Z,4.50
2023-06-29T14:27:00.600Z,6.00
2023-06-29T14:29:28.465Z,5.00
2023-06-29T14:31:56.368Z,5.00
2023-06-29T14:34:24.400Z,5.00
2023-06-29T14:36:52.553Z,4.00
2023-06-29T14:39:20.460Z,4.00
2023-06-29T14:41:53.708Z,5.00
2023-06-29T14:44:21.697Z,4.00
2023-06-29T14:46:51.511Z,3.00
2023-06-29T14:49:19.592Z,5.00
2023-06-29T14:51:47.502Z,4.00
2023-06-29T14:54:19.440Z,4.50
2023-06-29T14:56:47.512Z,4.00
2023-06-29T14:59:15.650Z,5.00
2023-06-29T15:01:43.850Z,4.00
2023-06-29T15:04:11.857Z,3.50
2023-06-29T15:06:39.925Z,4.00
2023-06-29T15:09:08.736Z,6.00
2023-06-29T15:11:37.153Z,5.00
2023-06-29T15:14:05.488Z,6.00
2023-06-29T15:16:35.628Z,5.00
2023-06-29T15:19:04.380Z,4.50
2023-06-29T15:21:35.413Z,6.00
2023-06-29T15:24:03.775Z,6.00
2023-06-29T15:26:31.997Z,4.00
2023-06-29T15:28:59.973Z,5.67
2023-06-29T15:31:31.463Z,4.00
2023-06-29T15:34:00.036Z,3.00
2023-06-29T15:36:30.601Z,4.00
2023-06-29T15:38:59.103Z,4.00
2023-06-29T15:41:29.003Z,4.00
2023-06-29T15:44:01.950Z,5.50
2023-06-29T15:46:31.779Z,5.00
2023-06-29T15:49:00.388Z,5.00
2023-06-29T15:51:29.420Z,6.00
2023-06-29T15:54:00.310Z,6.00
2023-06-29T15:56:30.692Z,6.00
2023-06-29T15:59:03.009Z,5.00
2023-06-29T16:01:31.641Z,3.00
2023-06-29T16:03:59.790Z,5.00
2023-06-29T16:06:29.965Z,7.00
2023-06-29T16:08:58.978Z,7.00
2023-06-29T16:11:27.172Z,7.00
2023-06-29T16:13:55.962Z,6.33
2023-06-29T16:16:24.057Z,6.00
2023-06-29T16:18:52.223Z,6.50
2023-06-29T16:21:20.472Z,6.00
2023-06-29T16:23:49.052Z,5.50
2023-06-29T16:26:17.700Z,5.00
2023-06-29T16:28:46.445Z,5.00
2023-06-29T16:31:14.592Z,4.00
2023-06-29T16:33:43.025Z,5.50
2023-06-29T16:36:11.087Z,4.33
2023-06-29T16:38:39.636Z,4.00
2023-06-29T16:41:07.905Z,5.00
2023-06-29T16:43:35.886Z,5.00
2023-06-29T16:46:03.931Z,5.00
2023-06-29T16:48:32.145Z,6.00
2023-06-29T16:51:00.652Z,5.50
2023-06-29T16:53:29.198Z,5.00
2023-06-29T16:55:57.492Z,6.00
2023-06-29T16:58:27.792Z,4.00
2023-06-29T17:00:55.842Z,3.00
2023-06-29T17:03:23.871Z,4.00
2023-06-29T17:05:52.069Z,5.00
2023-06-29T17:08:20.075Z,3.00
2023-06-29T17:10:47.962Z,5.00
2023-06-29T17:13:15.836Z,3.50
2023-06-29T17:15:44.106Z,4.00
2023-06-29T17:18:12.393Z,4.00
2023-06-29T17:20:40.346Z,5.00
2023-06-29T17:23:08.469Z,4.00
2023-06-29T17:25:44.889Z,5.00
2023-06-29T17:28:13.331Z,4.50
2023-06-29T17:30:41.909Z,3.00
2023-06-29T17:33:11.269Z,2.00
2023-06-29T17:35:39.635Z,4.00
2023-06-29T17:38:07.629Z,4.00
2023-06-29T17:40:36.201Z,4.00
2023-06-29T17:43:04.129Z,5.00
2023-06-29T17:45:32.869Z,4.00
2023-06-29T17:48:00.894Z,4.00
2023-06-29T17:50:29.185Z,4.00
2023-06-29T17:52:58.023Z,5.00
2023-06-29T17:55:26.043Z,5.00
2023-06-29T17:57:54.195Z,4.50
2023-06-29T18:00:22.201Z,5.00
2023-06-29T18:02:50.630Z,3.00
2023-06-29T18:05:18.766Z,2.00
2023-06-29T18:07:46.804Z,3.00
2023-06-29T18:10:14.703Z,3.00
2023-06-29T18:12:42.692Z,4.00
2023-06-29T18:15:11.205Z,4.00
2023-06-29T18:17:39.239Z,3.50
2023-06-29T18:20:07.913Z,2.50
2023-06-29T18:22:36.066Z,4.00
2023-06-29T18:25:05.158Z,3.00
2023-06-29T18:27:33.228Z,2.50
2023-06-29T18:30:01.466Z,4.00
2023-06-29T18:32:29.585Z,3.00
2023-06-29T18:34:57.532Z,3.00
2023-06-29T18:37:25.449Z,3.00
2023-06-29T18:39:53.462Z,4.00
2023-06-29T18:42:21.895Z,3.00
2023-06-29T18:44:50.588Z,3.00
2023-06-29T18:47:19.014Z,2.00
2023-06-29T18:49:52.448Z,3.00
2023-06-29T18:52:21.438Z,4.00
2023-06-29T18:54:52.711Z,5.00
2023-06-29T18:57:21.126Z,3.50
2023-06-29T18:59:50.053Z,4.50
2023-06-29T19:02:19.688Z,4.00
2023-06-29T19:04:48.033Z,4.00
2023-06-29T19:07:17.804Z,3.50
2023-06-29T19:09:46.180Z,3.33
2023-06-29T19:12:14.400Z,4.50
2023-06-29T19:14:43.269Z,4.00
2023-06-29T19:17:11.504Z,6.00
2023-06-29T19:19:39.834Z,4.50
2023-06-29T19:22:08.689Z,5.00
2023-06-29T19:24:37.068Z,6.00
2023-06-29T19:27:07.243Z,7.00
2023-06-29T19:29:35.621Z,5.00
2023-06-29T19:32:06.168Z,6.50
2023-06-29T19:34:38.890Z,7.00
2023-06-29T19:37:07.512Z,5.00
2023-06-29T19:39:36.164Z,6.50
2023-06-29T19:42:05.304Z,7.00
2023-06-29T19:44:33.307Z,6.00
2023-06-29T19:47:01.708Z,7.00
2023-06-29T19:51:58.947Z,5.00
2023-06-29T19:54:27.228Z,6.00
2023-06-29T19:56:55.746Z,7.00
2023-06-29T19:59:23.716Z,5.00
2023-06-29T20:01:51.885Z,6.33
2023-06-29T20:04:20.115Z,6.00
2023-06-29T20:06:48.578Z,6.50
2023-06-29T20:09:16.611Z,6.00
2023-06-29T20:11:44.952Z,4.50
2023-06-29T20:14:12.911Z,6.50
2023-06-29T20:16:40.988Z,6.00
2023-06-29T20:19:09.033Z,7.00
2023-06-29T20:21:37.044Z,5.50
2023-06-29T20:26:33.978Z,8.00
2023-06-29T20:29:01.914Z,6.00
2023-06-29T20:31:30.918Z,6.50
2023-06-29T20:33:58.927Z,7.00
2023-06-29T20:36:27.085Z,7.50
2023-06-29T20:38:55.052Z,7.00
2023-06-29T20:41:24.563Z,8.00
2023-06-29T20:43:52.575Z,8.00
2023-06-29T20:46:20.593Z,9.00
2023-06-29T20:48:48.782Z,8.50
2023-06-29T20:51:18.290Z,9.00
2023-06-29T20:53:47.206Z,6.50
2023-06-29T20:56:15.089Z,9.00
2023-06-29T20:58:43.283Z,7.00
2023-06-29T21:01:11.436Z,8.00
2023-06-29T21:03:44.927Z,9.00
2023-06-29T21:06:13.548Z,8.00
2023-06-29T21:08:42.339Z,6.50
2023-06-29T21:11:10.833Z,7.00
2023-06-29T21:13:38.978Z,7.00
2023-06-29T21:16:07.355Z,8.00
2023-06-29T21:18:35.677Z,7.00
2023-06-29T21:21:04.133Z,10.00
2023-06-29T21:23:32.104Z,7.50
2023-06-29T21:26:00.349Z,8.00
2023-06-29T21:28:28.862Z,7.00
2023-06-29T21:30:58.199Z,7.00
2023-06-29T21:33:27.405Z,7.50
2023-06-29T21:35:55.558Z,7.33
2023-06-29T21:38:27.973Z,7.00
2023-06-29T21:41:00.410Z,7.00
2023-06-29T21:43:28.448Z,8.00
2023-06-29T21:45:56.498Z,8.00
2023-06-29T21:48:24.516Z,8.00
2023-06-29T21:50:52.624Z,10.00
2023-06-29T21:53:21.318Z,9.50
2023-06-29T21:55:49.427Z,11.00
2023-06-29T21:58:17.400Z,10.00
2023-06-29T22:00:46.005Z,9.50
2023-06-29T22:03:14.244Z,11.00
2023-06-29T22:05:42.184Z,10.00
2023-06-29T22:08:11.672Z,8.00
2023-06-29T22:10:39.652Z,10.00
2023-06-29T22:13:07.582Z,11.00
2023-06-29T22:15:38.228Z,9.00
2023-06-29T22:18:06.973Z,10.00
2023-06-29T22:20:35.119Z,12.00
2023-06-29T22:23:03.879Z,11.00
2023-06-29T22:25:33.223Z,8.00
2023-06-29T22:28:01.303Z,9.00
2023-06-29T22:30:29.272Z,8.00
2023-06-29T22:32:57.353Z,9.50
2023-06-29T22:35:26.097Z,9.00
2023-06-29T22:37:54.159Z,10.00
2023-06-29T22:40:22.315Z,9.00
2023-06-29T22:42:50.261Z,9.67
2023-06-29T22:45:19.285Z,9.00
2023-06-29T22:47:47.263Z,9.00
2023-06-29T22:50:15.441Z,9.00
2023-06-29T22:52:44.506Z,9.00
2023-06-29T22:55:12.882Z,12.00
2023-06-29T22:57:40.956Z,11.00
2023-06-29T23:00:10.273Z,10.00
2023-06-29T23:02:39.135Z,8.00
2023-06-29T23:05:08.493Z,11.50
2023-06-29T23:07:44.527Z,10.00
2023-06-29T23:10:16.339Z,11.00
2023-06-29T23:12:47.679Z,11.00
2023-06-29T23:15:17.073Z,11.00
2023-06-29T23:20:14.394Z,8.00
2023-06-29T23:22:45.306Z,8.00
2023-06-29T23:25:13.372Z,9.50
2023-06-29T23:27:44.697Z,9.00
2023-06-29T23:30:15.722Z,7.50
2023-06-29T23:32:51.264Z,9.00
2023-06-29T23:35:21.787Z,7.00
2023-06-29T23:37:49.930Z,9.00
2023-06-29T23:40:18.054Z,8.50
2023-06-29T23:42:46.117Z,7.00
2023-06-29T23:45:14.143Z,9.00
2023-06-29T23:47:42.160Z,7.00
2023-06-29T23:50:12.562Z,8.00
2023-06-29T23:52:41.829Z,11.00
2023-06-29T23:55:12.952Z,9.00
2023-06-29T23:57:42.086Z,9.00
